sensor_id;sensor_type;location;lat;lon;timestamp;P1;durP1;ratioP1;P2;durP2;ratioP2
16705;SDS011;8469;60.136;15.180;2022-07-04T00:01:33;2.80;;;2.40;;
16705;SDS011;8469;60.136;15.180;2022-07-04T00:04:01;3.30;;;2.50;;
16705;SDS011;8469;60.136;15.180;2022-07-04T00:06:28;4.60;;;2.60;;
16705;SDS011;8469;60.136;15.180;2022-07-04T00:08:56;3.10;;;2.50;;
16705;SDS011;8469;60.136;15.180;2022-07-04T00:11:23;4.30;;;2.37;;
16705;SDS011;8469;60.136;15.180;2022-07-04T00:13:50;2.50;;;2.30;;
16705;SDS011;8469;60.136;15.180;2022-07-04T00:16:17;2.92;;;2.33;;
16705;SDS011;8469;60.136;15.180;2022-07-04T00:18:45;2.60;;;2.40;;
16705;SDS011;8469;60.136;15.180;2022-07-04T00:21:12;3.30;;;2.22;;
16705;SDS011;8469;60.136;15.180;2022-07-04T00:23:39;2.50;;;2.10;;
16705;SDS011;8469;60.136;15.180;2022-07-04T00:26:06;3.10;;;2.52;;
16705;SDS011;8469;60.136;15.180;2022-07-04T00:28:33;2.58;;;2.37;;
16705;SDS011;8469;60.136;15.180;2022-07-04T00:31:01;2.62;;;2.42;;
16705;SDS011;8469;60.136;15.180;2022-07-04T00:33:28;2.60;;;2.40;;
16705;SDS011;8469;60.136;15.180;2022-07-04T00:35:56;2.77;;;2.50;;
16705;SDS011;8469;60.136;15.180;2022-07-04T00:38:23;4.78;;;2.40;;
16705;SDS011;8469;60.136;15.180;2022-07-04T00:40:51;2.47;;;2.27;;
16705;SDS011;8469;60.136;15.180;2022-07-04T00:43:24;3.05;;;2.40;;
16705;SDS011;8469;60.136;15.180;2022-07-04T00:45:52;2.85;;;2.22;;
16705;SDS011;8469;60.136;15.180;2022-07-04T00:48:19;3.15;;;2.85;;
16705;SDS011;8469;60.136;15.180;2022-07-04T00:50:46;3.12;;;2.72;;
16705;SDS011;8469;60.136;15.180;2022-07-04T00:53:15;3.42;;;2.58;;
16705;SDS011;8469;60.136;15.180;2022-07-04T00:55:43;2.98;;;2.60;;
16705;SDS011;8469;60.136;15.180;2022-07-04T00:58:11;3.33;;;2.27;;
16705;SDS011;8469;60.136;15.180;2022-07-04T01:00:40;2.55;;;2.30;;
16705;SDS011;8469;60.136;15.180;2022-07-04T01:03:07;3.77;;;2.55;;
16705;SDS011;8469;60.136;15.180;2022-07-04T01:05:34;3.08;;;2.37;;
16705;SDS011;8469;60.136;15.180;2022-07-04T01:08:02;3.77;;;2.40;;
16705;SDS011;8469;60.136;15.180;2022-07-04T01:10:30;3.03;;;2.30;;
16705;SDS011;8469;60.136;15.180;2022-07-04T01:12:57;3.47;;;2.60;;
16705;SDS011;8469;60.136;15.180;2022-07-04T01:15:24;2.50;;;2.30;;
16705;SDS011;8469;60.136;15.180;2022-07-04T01:17:51;2.65;;;2.30;;
16705;SDS011;8469;60.136;15.180;2022-07-04T01:20:19;2.40;;;2.30;;
16705;SDS011;8469;60.136;15.180;2022-07-04T01:22:46;3.67;;;2.67;;
16705;SDS011;8469;60.136;15.180;2022-07-04T01:25:13;2.83;;;2.40;;
16705;SDS011;8469;60.136;15.180;2022-07-04T01:27:40;2.90;;;2.60;;
16705;SDS011;8469;60.136;15.180;2022-07-04T01:30:08;4.95;;;2.80;;
16705;SDS011;8469;60.136;15.180;2022-07-04T01:32:36;3.13;;;2.87;;
16705;SDS011;8469;60.136;15.180;2022-07-04T01:35:04;6.07;;;2.90;;
16705;SDS011;8469;60.136;15.180;2022-07-04T01:37:31;3.58;;;2.90;;
16705;SDS011;8469;60.136;15.180;2022-07-04T01:39:58;4.33;;;2.80;;
16705;SDS011;8469;60.136;15.180;2022-07-04T01:42:26;7.10;;;2.80;;
16705;SDS011;8469;60.136;15.180;2022-07-04T01:44:53;3.70;;;2.90;;
16705;SDS011;8469;60.136;15.180;2022-07-04T01:47:20;3.98;;;3.22;;
16705;SDS011;8469;60.136;15.180;2022-07-04T01:49:47;5.37;;;2.92;;
16705;SDS011;8469;60.136;15.180;2022-07-04T01:52:15;4.90;;;2.90;;
16705;SDS011;8469;60.136;15.180;2022-07-04T01:54:42;4.75;;;3.08;;
16705;SDS011;8469;60.136;15.180;2022-07-04T01:57:09;3.02;;;2.67;;
16705;SDS011;8469;60.136;15.180;2022-07-04T01:59:38;4.58;;;2.92;;
16705;SDS011;8469;60.136;15.180;2022-07-04T02:02:24;3.40;;;3.08;;
16705;SDS011;8469;60.136;15.180;2022-07-04T02:04:51;2.95;;;2.72;;
16705;SDS011;8469;60.136;15.180;2022-07-04T02:07:19;3.45;;;2.90;;
16705;SDS011;8469;60.136;15.180;2022-07-04T02:09:46;3.12;;;2.83;;
16705;SDS011;8469;60.136;15.180;2022-07-04T02:12:14;3.58;;;2.83;;
16705;SDS011;8469;60.136;15.180;2022-07-04T02:14:59;3.15;;;2.92;;
16705;SDS011;8469;60.136;15.180;2022-07-04T02:17:26;3.17;;;2.67;;
16705;SDS011;8469;60.136;15.180;2022-07-04T02:19:54;3.22;;;2.90;;
16705;SDS011;8469;60.136;15.180;2022-07-04T02:22:20;3.42;;;3.12;;
16705;SDS011;8469;60.136;15.180;2022-07-04T02:24:49;3.10;;;2.90;;
16705;SDS011;8469;60.136;15.180;2022-07-04T02:27:16;4.40;;;3.50;;
16705;SDS011;8469;60.136;15.180;2022-07-04T02:29:43;6.62;;;3.22;;
16705;SDS011;8469;60.136;15.180;2022-07-04T02:32:10;3.45;;;3.10;;
16705;SDS011;8469;60.136;15.180;2022-07-04T02:34:38;3.65;;;3.30;;
16705;SDS011;8469;60.136;15.180;2022-07-04T02:37:05;3.47;;;3.05;;
16705;SDS011;8469;60.136;15.180;2022-07-04T02:39:32;3.98;;;3.47;;
16705;SDS011;8469;60.136;15.180;2022-07-04T02:42:00;3.40;;;3.20;;
16705;SDS011;8469;60.136;15.180;2022-07-04T02:44:27;4.60;;;3.58;;
16705;SDS011;8469;60.136;15.180;2022-07-04T02:46:55;6.78;;;3.40;;
16705;SDS011;8469;60.136;15.180;2022-07-04T02:49:22;3.60;;;3.30;;
16705;SDS011;8469;60.136;15.180;2022-07-04T02:51:49;5.80;;;3.40;;
16705;SDS011;8469;60.136;15.180;2022-07-04T02:54:17;5.20;;;3.33;;
16705;SDS011;8469;60.136;15.180;2022-07-04T02:56:44;4.50;;;3.25;;
16705;SDS011;8469;60.136;15.180;2022-07-04T02:59:11;3.90;;;3.60;;
16705;SDS011;8469;60.136;15.180;2022-07-04T03:01:38;5.20;;;3.40;;
16705;SDS011;8469;60.136;15.180;2022-07-04T03:04:06;4.83;;;3.60;;
16705;SDS011;8469;60.136;15.180;2022-07-04T03:06:33;4.40;;;3.60;;
16705;SDS011;8469;60.136;15.180;2022-07-04T03:09:00;4.03;;;3.70;;
16705;SDS011;8469;60.136;15.180;2022-07-04T03:11:28;4.20;;;3.60;;
16705;SDS011;8469;60.136;15.180;2022-07-04T03:13:55;5.00;;;3.70;;
16705;SDS011;8469;60.136;15.180;2022-07-04T03:16:22;4.20;;;3.50;;
16705;SDS011;8469;60.136;15.180;2022-07-04T03:18:49;4.23;;;3.87;;
16705;SDS011;8469;60.136;15.180;2022-07-04T03:21:17;3.92;;;3.40;;
16705;SDS011;8469;60.136;15.180;2022-07-04T03:23:43;4.15;;;3.80;;
16705;SDS011;8469;60.136;15.180;2022-07-04T03:26:16;6.40;;;3.75;;
16705;SDS011;8469;60.136;15.180;2022-07-04T03:28:43;6.22;;;3.75;;
16705;SDS011;8469;60.136;15.180;2022-07-04T03:31:10;3.60;;;3.30;;
16705;SDS011;8469;60.136;15.180;2022-07-04T03:33:37;3.83;;;3.45;;
16705;SDS011;8469;60.136;15.180;2022-07-04T03:36:05;3.92;;;3.52;;
16705;SDS011;8469;60.136;15.180;2022-07-04T03:38:32;3.92;;;3.52;;
16705;SDS011;8469;60.136;15.180;2022-07-04T03:40:59;3.60;;;3.30;;
16705;SDS011;8469;60.136;15.180;2022-07-04T03:43:26;5.85;;;3.67;;
16705;SDS011;8469;60.136;15.180;2022-07-04T03:45:54;4.40;;;3.45;;
16705;SDS011;8469;60.136;15.180;2022-07-04T03:48:21;3.83;;;3.37;;
16705;SDS011;8469;60.136;15.180;2022-07-04T03:50:48;3.70;;;3.40;;
16705;SDS011;8469;60.136;15.180;2022-07-04T03:53:16;3.77;;;3.40;;
16705;SDS011;8469;60.136;15.180;2022-07-04T03:55:43;4.40;;;3.50;;
16705;SDS011;8469;60.136;15.180;2022-07-04T03:58:10;3.65;;;3.20;;
16705;SDS011;8469;60.136;15.180;2022-07-04T04:00:37;5.03;;;3.75;;
16705;SDS011;8469;60.136;15.180;2022-07-04T04:03:05;4.70;;;3.50;;
16705;SDS011;8469;60.136;15.180;2022-07-04T04:05:33;3.90;;;3.40;;
16705;SDS011;8469;60.136;15.180;2022-07-04T04:08:00;4.87;;;3.40;;
16705;SDS011;8469;60.136;15.180;2022-07-04T04:10:29;5.12;;;3.45;;
16705;SDS011;8469;60.136;15.180;2022-07-04T04:12:57;4.65;;;3.72;;
16705;SDS011;8469;60.136;15.180;2022-07-04T04:15:25;3.83;;;3.52;;
16705;SDS011;8469;60.136;15.180;2022-07-04T04:17:52;4.15;;;3.30;;
16705;SDS011;8469;60.136;15.180;2022-07-04T04:20:19;4.80;;;3.37;;
16705;SDS011;8469;60.136;15.180;2022-07-04T04:22:47;3.77;;;3.40;;
16705;SDS011;8469;60.136;15.180;2022-07-04T04:25:14;3.75;;;3.40;;
16705;SDS011;8469;60.136;15.180;2022-07-04T04:27:41;4.15;;;3.75;;
16705;SDS011;8469;60.136;15.180;2022-07-04T04:30:08;3.77;;;3.47;;
16705;SDS011;8469;60.136;15.180;2022-07-04T04:32:36;4.03;;;3.62;;
16705;SDS011;8469;60.136;15.180;2022-07-04T04:35:03;4.28;;;3.80;;
16705;SDS011;8469;60.136;15.180;2022-07-04T04:37:31;4.20;;;3.50;;
16705;SDS011;8469;60.136;15.180;2022-07-04T04:39:58;4.08;;;3.67;;
16705;SDS011;8469;60.136;15.180;2022-07-04T04:42:25;4.43;;;3.30;;
16705;SDS011;8469;60.136;15.180;2022-07-04T04:44:52;4.10;;;3.70;;
16705;SDS011;8469;60.136;15.180;2022-07-04T04:47:20;3.77;;;3.40;;
16705;SDS011;8469;60.136;15.180;2022-07-04T04:49:47;3.80;;;3.40;;
16705;SDS011;8469;60.136;15.180;2022-07-04T04:52:14;4.27;;;3.50;;
16705;SDS011;8469;60.136;15.180;2022-07-04T04:54:42;5.53;;;3.70;;
16705;SDS011;8469;60.136;15.180;2022-07-04T04:57:09;5.00;;;3.83;;
16705;SDS011;8469;60.136;15.180;2022-07-04T04:59:37;5.33;;;3.60;;
16705;SDS011;8469;60.136;15.180;2022-07-04T05:02:04;3.95;;;3.60;;
16705;SDS011;8469;60.136;15.180;2022-07-04T05:04:31;3.98;;;3.60;;
16705;SDS011;8469;60.136;15.180;2022-07-04T05:06:58;4.65;;;3.92;;
16705;SDS011;8469;60.136;15.180;2022-07-04T05:09:26;3.98;;;3.55;;
16705;SDS011;8469;60.136;15.180;2022-07-04T05:11:53;4.55;;;3.80;;
16705;SDS011;8469;60.136;15.180;2022-07-04T05:14:20;3.72;;;3.33;;
16705;SDS011;8469;60.136;15.180;2022-07-04T05:16:48;4.22;;;3.83;;
16705;SDS011;8469;60.136;15.180;2022-07-04T05:19:15;4.30;;;3.90;;
16705;SDS011;8469;60.136;15.180;2022-07-04T05:21:42;4.10;;;3.70;;
16705;SDS011;8469;60.136;15.180;2022-07-04T05:24:09;6.40;;;4.00;;
16705;SDS011;8469;60.136;15.180;2022-07-04T05:26:37;4.58;;;3.90;;
16705;SDS011;8469;60.136;15.180;2022-07-04T05:29:04;4.87;;;4.00;;
16705;SDS011;8469;60.136;15.180;2022-07-04T05:31:31;6.28;;;4.00;;
16705;SDS011;8469;60.136;15.180;2022-07-04T05:33:59;4.33;;;3.92;;
16705;SDS011;8469;60.136;15.180;2022-07-04T05:36:26;4.40;;;4.00;;
16705;SDS011;8469;60.136;15.180;2022-07-04T05:38:54;4.40;;;4.05;;
16705;SDS011;8469;60.136;15.180;2022-07-04T05:41:20;4.97;;;4.45;;
16705;SDS011;8469;60.136;15.180;2022-07-04T05:43:48;4.60;;;4.20;;
16705;SDS011;8469;60.136;15.180;2022-07-04T05:46:16;4.62;;;4.20;;
16705;SDS011;8469;60.136;15.180;2022-07-04T05:48:43;6.55;;;4.42;;
16705;SDS011;8469;60.136;15.180;2022-07-04T05:51:10;4.97;;;4.30;;
16705;SDS011;8469;60.136;15.180;2022-07-04T05:53:37;4.40;;;4.00;;
16705;SDS011;8469;60.136;15.180;2022-07-04T05:56:05;4.83;;;4.30;;
16705;SDS011;8469;60.136;15.180;2022-07-04T05:58:32;5.60;;;4.40;;
16705;SDS011;8469;60.136;15.180;2022-07-04T06:00:59;4.78;;;4.25;;
16705;SDS011;8469;60.136;15.180;2022-07-04T06:03:26;4.10;;;3.80;;
16705;SDS011;8469;60.136;15.180;2022-07-04T06:05:54;6.00;;;4.12;;
16705;SDS011;8469;60.136;15.180;2022-07-04T06:08:21;4.53;;;4.00;;
16705;SDS011;8469;60.136;15.180;2022-07-04T06:10:49;4.28;;;3.90;;
16705;SDS011;8469;60.136;15.180;2022-07-04T06:13:16;4.42;;;3.75;;
16705;SDS011;8469;60.136;15.180;2022-07-04T06:15:43;4.35;;;3.95;;
16705;SDS011;8469;60.136;15.180;2022-07-04T06:18:10;3.90;;;3.60;;
16705;SDS011;8469;60.136;15.180;2022-07-04T06:20:38;4.08;;;3.67;;
16705;SDS011;8469;60.136;15.180;2022-07-04T06:23:06;4.80;;;3.72;;
16705;SDS011;8469;60.136;15.180;2022-07-04T06:25:34;4.80;;;3.80;;
16705;SDS011;8469;60.136;15.180;2022-07-04T06:28:02;5.33;;;3.90;;
16705;SDS011;8469;60.136;15.180;2022-07-04T06:30:29;4.58;;;3.67;;
16705;SDS011;8469;60.136;15.180;2022-07-04T06:32:57;4.15;;;3.72;;
16705;SDS011;8469;60.136;15.180;2022-07-04T06:35:27;5.30;;;3.60;;
16705;SDS011;8469;60.136;15.180;2022-07-04T06:38:20;4.25;;;3.85;;
16705;SDS011;8469;60.136;15.180;2022-07-04T06:40:50;5.00;;;3.83;;
16705;SDS011;8469;60.136;15.180;2022-07-04T06:43:19;4.17;;;3.77;;
16705;SDS011;8469;60.136;15.180;2022-07-04T06:45:46;3.50;;;3.20;;
16705;SDS011;8469;60.136;15.180;2022-07-04T06:48:13;5.47;;;3.92;;
16705;SDS011;8469;60.136;15.180;2022-07-04T06:50:41;4.00;;;3.60;;
16705;SDS011;8469;60.136;15.180;2022-07-04T06:53:08;4.83;;;3.77;;
16705;SDS011;8469;60.136;15.180;2022-07-04T06:55:41;4.75;;;3.60;;
16705;SDS011;8469;60.136;15.180;2022-07-04T06:58:05;5.35;;;4.05;;
16705;SDS011;8469;60.136;15.180;2022-07-04T07:00:34;7.83;;;4.00;;
16705;SDS011;8469;60.136;15.180;2022-07-04T07:03:02;4.78;;;3.95;;
16705;SDS011;8469;60.136;15.180;2022-07-04T07:05:30;4.20;;;3.83;;
16705;SDS011;8469;60.136;15.180;2022-07-04T07:07:57;4.53;;;3.70;;
16705;SDS011;8469;60.136;15.180;2022-07-04T07:10:25;5.17;;;3.35;;
16705;SDS011;8469;60.136;15.180;2022-07-04T07:12:52;3.95;;;3.60;;
16705;SDS011;8469;60.136;15.180;2022-07-04T07:15:19;4.85;;;3.52;;
16705;SDS011;8469;60.136;15.180;2022-07-04T07:17:47;5.80;;;3.77;;
16705;SDS011;8469;60.136;15.180;2022-07-04T07:20:14;6.70;;;3.73;;
16705;SDS011;8469;60.136;15.180;2022-07-04T07:22:41;3.90;;;3.47;;
16705;SDS011;8469;60.136;15.180;2022-07-04T07:25:09;4.30;;;3.58;;
16705;SDS011;8469;60.136;15.180;2022-07-04T07:27:37;4.62;;;3.90;;
16705;SDS011;8469;60.136;15.180;2022-07-04T07:30:04;3.58;;;3.27;;
16705;SDS011;8469;60.136;15.180;2022-07-04T07:32:32;3.60;;;3.30;;
16705;SDS011;8469;60.136;15.180;2022-07-04T07:34:59;3.40;;;3.10;;
16705;SDS011;8469;60.136;15.180;2022-07-04T07:37:27;6.75;;;3.00;;
16705;SDS011;8469;60.136;15.180;2022-07-04T07:39:54;5.22;;;3.55;;
16705;SDS011;8469;60.136;15.180;2022-07-04T07:42:22;3.20;;;3.00;;
16705;SDS011;8469;60.136;15.180;2022-07-04T07:44:50;4.12;;;3.25;;
16705;SDS011;8469;60.136;15.180;2022-07-04T07:47:17;3.70;;;3.17;;
16705;SDS011;8469;60.136;15.180;2022-07-04T07:49:44;5.20;;;2.83;;
16705;SDS011;8469;60.136;15.180;2022-07-04T07:52:14;3.08;;;2.80;;
16705;SDS011;8469;60.136;15.180;2022-07-04T07:54:42;3.47;;;2.75;;
16705;SDS011;8469;60.136;15.180;2022-07-04T07:57:09;3.13;;;2.83;;
16705;SDS011;8469;60.136;15.180;2022-07-04T07:59:36;2.58;;;2.30;;
16705;SDS011;8469;60.136;15.180;2022-07-04T08:02:03;2.77;;;2.58;;
16705;SDS011;8469;60.136;15.180;2022-07-04T08:04:30;2.90;;;2.70;;
16705;SDS011;8469;60.136;15.180;2022-07-04T08:07:02;2.70;;;2.50;;
16705;SDS011;8469;60.136;15.180;2022-07-04T08:09:30;3.00;;;2.40;;
16705;SDS011;8469;60.136;15.180;2022-07-04T08:11:57;3.17;;;2.10;;
16705;SDS011;8469;60.136;15.180;2022-07-04T08:14:25;2.08;;;1.98;;
16705;SDS011;8469;60.136;15.180;2022-07-04T08:16:52;2.10;;;2.00;;
16705;SDS011;8469;60.136;15.180;2022-07-04T08:19:19;2.30;;;2.00;;
16705;SDS011;8469;60.136;15.180;2022-07-04T08:21:47;2.35;;;2.20;;
16705;SDS011;8469;60.136;15.180;2022-07-04T08:24:14;2.37;;;2.25;;
16705;SDS011;8469;60.136;15.180;2022-07-04T08:26:42;4.58;;;2.10;;
16705;SDS011;8469;60.136;15.180;2022-07-04T08:29:09;2.57;;;2.13;;
16705;SDS011;8469;60.136;15.180;2022-07-04T08:31:36;2.47;;;2.27;;
16705;SDS011;8469;60.136;15.180;2022-07-04T08:34:04;2.60;;;2.30;;
16705;SDS011;8469;60.136;15.180;2022-07-04T08:36:31;2.40;;;2.20;;
16705;SDS011;8469;60.136;15.180;2022-07-04T08:38:59;3.33;;;2.17;;
16705;SDS011;8469;60.136;15.180;2022-07-04T08:41:26;2.20;;;2.00;;
16705;SDS011;8469;60.136;15.180;2022-07-04T08:43:53;2.10;;;2.00;;
16705;SDS011;8469;60.136;15.180;2022-07-04T08:46:23;2.10;;;2.00;;
16705;SDS011;8469;60.136;15.180;2022-07-04T08:48:52;6.40;;;1.80;;
16705;SDS011;8469;60.136;15.180;2022-07-04T08:51:25;2.90;;;2.00;;
16705;SDS011;8469;60.136;15.180;2022-07-04T08:53:55;2.00;;;1.90;;
16705;SDS011;8469;60.136;15.180;2022-07-04T08:56:22;1.87;;;1.77;;
16705;SDS011;8469;60.136;15.180;2022-07-04T08:59:08;1.82;;;1.62;;
16705;SDS011;8469;60.136;15.180;2022-07-04T09:01:35;2.62;;;1.80;;
16705;SDS011;8469;60.136;15.180;2022-07-04T09:04:03;3.52;;;1.85;;
16705;SDS011;8469;60.136;15.180;2022-07-04T09:06:31;1.80;;;1.70;;
16705;SDS011;8469;60.136;15.180;2022-07-04T09:08:58;2.42;;;1.90;;
16705;SDS011;8469;60.136;15.180;2022-07-04T09:11:26;2.33;;;1.77;;
16705;SDS011;8469;60.136;15.180;2022-07-04T09:13:53;1.80;;;1.70;;
16705;SDS011;8469;60.136;15.180;2022-07-04T09:16:20;1.80;;;1.70;;
16705;SDS011;8469;60.136;15.180;2022-07-04T09:18:47;2.50;;;1.90;;
16705;SDS011;8469;60.136;15.180;2022-07-04T09:21:15;1.75;;;1.65;;
16705;SDS011;8469;60.136;15.180;2022-07-04T09:23:42;2.02;;;1.82;;
16705;SDS011;8469;60.136;15.180;2022-07-04T09:26:11;2.77;;;1.87;;
16705;SDS011;8469;60.136;15.180;2022-07-04T09:28:40;3.12;;;1.70;;
16705;SDS011;8469;60.136;15.180;2022-07-04T09:31:19;3.45;;;1.82;;
16705;SDS011;8469;60.136;15.180;2022-07-04T09:33:44;3.27;;;2.00;;
16705;SDS011;8469;60.136;15.180;2022-07-04T09:36:14;6.17;;;2.47;;
16705;SDS011;8469;60.136;15.180;2022-07-04T09:38:42;3.87;;;2.25;;
16705;SDS011;8469;60.136;15.180;2022-07-04T09:41:09;5.62;;;1.95;;
16705;SDS011;8469;60.136;15.180;2022-07-04T09:43:59;3.58;;;1.87;;
16705;SDS011;8469;60.136;15.180;2022-07-04T09:46:26;3.42;;;2.00;;
16705;SDS011;8469;60.136;15.180;2022-07-04T09:48:54;3.10;;;1.93;;
16705;SDS011;8469;60.136;15.180;2022-07-04T09:51:34;5.10;;;1.80;;
16705;SDS011;8469;60.136;15.180;2022-07-04T09:53:50;1.87;;;1.70;;
16705;SDS011;8469;60.136;15.180;2022-07-04T09:56:17;2.72;;;1.70;;
16705;SDS011;8469;60.136;15.180;2022-07-04T09:58:56;2.60;;;1.50;;
16705;SDS011;8469;60.136;15.180;2022-07-04T10:01:24;1.60;;;1.47;;
16705;SDS011;8469;60.136;15.180;2022-07-04T10:03:51;1.95;;;1.52;;
16705;SDS011;8469;60.136;15.180;2022-07-04T10:06:18;1.50;;;1.40;;
16705;SDS011;8469;60.136;15.180;2022-07-04T10:08:46;1.40;;;1.10;;
16705;SDS011;8469;60.136;15.180;2022-07-04T10:11:13;1.30;;;1.20;;
16705;SDS011;8469;60.136;15.180;2022-07-04T10:13:40;1.10;;;1.10;;
16705;SDS011;8469;60.136;15.180;2022-07-04T10:16:08;1.60;;;1.10;;
16705;SDS011;8469;60.136;15.180;2022-07-04T10:18:35;1.27;;;1.20;;
16705;SDS011;8469;60.136;15.180;2022-07-04T10:21:02;1.10;;;1.10;;
16705;SDS011;8469;60.136;15.180;2022-07-04T10:23:30;1.20;;;1.15;;
16705;SDS011;8469;60.136;15.180;2022-07-04T10:26:00;1.00;;;1.00;;
16705;SDS011;8469;60.136;15.180;2022-07-04T10:28:28;1.30;;;1.20;;
16705;SDS011;8469;60.136;15.180;2022-07-04T10:30:56;1.00;;;1.00;;
16705;SDS011;8469;60.136;15.180;2022-07-04T10:33:26;1.15;;;1.05;;
16705;SDS011;8469;60.136;15.180;2022-07-04T10:35:54;1.22;;;1.12;;
16705;SDS011;8469;60.136;15.180;2022-07-04T10:38:22;0.90;;;0.90;;
16705;SDS011;8469;60.136;15.180;2022-07-04T10:40:50;1.70;;;0.90;;
16705;SDS011;8469;60.136;15.180;2022-07-04T10:45:55;1.20;;;1.10;;
16705;SDS011;8469;60.136;15.180;2022-07-04T10:48:23;1.50;;;0.90;;
16705;SDS011;8469;60.136;15.180;2022-07-04T10:51:01;0.80;;;0.80;;
16705;SDS011;8469;60.136;15.180;2022-07-04T10:53:25;1.00;;;0.90;;
16705;SDS011;8469;60.136;15.180;2022-07-04T10:55:52;1.00;;;1.00;;
16705;SDS011;8469;60.136;15.180;2022-07-04T10:58:42;2.50;;;1.00;;
16705;SDS011;8469;60.136;15.180;2022-07-04T11:01:13;0.95;;;0.95;;
16705;SDS011;8469;60.136;15.180;2022-07-04T11:03:47;1.72;;;0.95;;
16705;SDS011;8469;60.136;15.180;2022-07-04T11:09:15;0.77;;;0.77;;
16705;SDS011;8469;60.136;15.180;2022-07-04T11:11:49;1.37;;;0.90;;
16705;SDS011;8469;60.136;15.180;2022-07-04T11:17:05;0.60;;;0.60;;
16705;SDS011;8469;60.136;15.180;2022-07-04T11:19:33;0.88;;;0.68;;
16705;SDS011;8469;60.136;15.180;2022-07-04T11:22:00;0.80;;;0.80;;
16705;SDS011;8469;60.136;15.180;2022-07-04T11:24:28;0.90;;;0.90;;
16705;SDS011;8469;60.136;15.180;2022-07-04T11:26:55;1.30;;;0.65;;
16705;SDS011;8469;60.136;15.180;2022-07-04T11:29:22;0.60;;;0.60;;
16705;SDS011;8469;60.136;15.180;2022-07-04T11:31:50;0.60;;;0.60;;
16705;SDS011;8469;60.136;15.180;2022-07-04T11:34:18;0.65;;;0.60;;
16705;SDS011;8469;60.136;15.180;2022-07-04T11:36:47;0.73;;;0.73;;
16705;SDS011;8469;60.136;15.180;2022-07-04T11:39:16;0.90;;;0.70;;
16705;SDS011;8469;60.136;15.180;2022-07-04T11:41:51;0.70;;;0.60;;
16705;SDS011;8469;60.136;15.180;2022-07-04T11:44:37;2.40;;;0.65;;
16705;SDS011;8469;60.136;15.180;2022-07-04T11:47:24;0.55;;;0.55;;
16705;SDS011;8469;60.136;15.180;2022-07-04T11:49:52;0.50;;;0.50;;
16705;SDS011;8469;60.136;15.180;2022-07-04T11:52:20;0.60;;;0.60;;
16705;SDS011;8469;60.136;15.180;2022-07-04T11:54:48;0.60;;;0.60;;
16705;SDS011;8469;60.136;15.180;2022-07-04T11:57:27;0.90;;;0.70;;
16705;SDS011;8469;60.136;15.180;2022-07-04T12:00:00;0.60;;;0.60;;
16705;SDS011;8469;60.136;15.180;2022-07-04T12:02:29;1.77;;;0.85;;
16705;SDS011;8469;60.136;15.180;2022-07-04T12:04:56;1.02;;;0.90;;
16705;SDS011;8469;60.136;15.180;2022-07-04T12:07:27;1.25;;;0.80;;
16705;SDS011;8469;60.136;15.180;2022-07-04T12:09:55;0.60;;;0.60;;
16705;SDS011;8469;60.136;15.180;2022-07-04T12:12:22;0.70;;;0.70;;
16705;SDS011;8469;60.136;15.180;2022-07-04T12:15:24;2.10;;;0.82;;
16705;SDS011;8469;60.136;15.180;2022-07-04T12:17:29;2.03;;;0.70;;
16705;SDS011;8469;60.136;15.180;2022-07-04T12:19:54;0.88;;;0.70;;
16705;SDS011;8469;60.136;15.180;2022-07-04T12:22:25;0.63;;;0.63;;
16705;SDS011;8469;60.136;15.180;2022-07-04T12:24:53;0.77;;;0.70;;
16705;SDS011;8469;60.136;15.180;2022-07-04T12:27:20;0.72;;;0.72;;
16705;SDS011;8469;60.136;15.180;2022-07-04T12:29:48;1.12;;;0.70;;
16705;SDS011;8469;60.136;15.180;2022-07-04T12:32:16;1.80;;;0.70;;
16705;SDS011;8469;60.136;15.180;2022-07-04T12:34:44;0.80;;;0.80;;
16705;SDS011;8469;60.136;15.180;2022-07-04T12:37:12;0.80;;;0.80;;
16705;SDS011;8469;60.136;15.180;2022-07-04T12:39:40;0.70;;;0.70;;
16705;SDS011;8469;60.136;15.180;2022-07-04T12:42:08;1.32;;;1.22;;
16705;SDS011;8469;60.136;15.180;2022-07-04T12:44:36;1.02;;;0.90;;
16705;SDS011;8469;60.136;15.180;2022-07-04T12:47:04;0.70;;;0.70;;
16705;SDS011;8469;60.136;15.180;2022-07-04T12:49:32;1.00;;;1.00;;
16705;SDS011;8469;60.136;15.180;2022-07-04T12:52:06;0.90;;;0.90;;
16705;SDS011;8469;60.136;15.180;2022-07-04T12:54:34;1.00;;;1.00;;
16705;SDS011;8469;60.136;15.180;2022-07-04T12:59:33;2.05;;;0.90;;
16705;SDS011;8469;60.136;15.180;2022-07-04T13:02:01;1.60;;;0.75;;
16705;SDS011;8469;60.136;15.180;2022-07-04T13:04:28;0.53;;;0.53;;
16705;SDS011;8469;60.136;15.180;2022-07-04T13:06:57;0.93;;;0.72;;
16705;SDS011;8469;60.136;15.180;2022-07-04T13:09:25;3.37;;;0.68;;
16705;SDS011;8469;60.136;15.180;2022-07-04T13:11:52;1.10;;;0.70;;
16705;SDS011;8469;60.136;15.180;2022-07-04T13:14:38;0.80;;;0.67;;
16705;SDS011;8469;60.136;15.180;2022-07-04T13:17:05;1.70;;;0.80;;
16705;SDS011;8469;60.136;15.180;2022-07-04T13:19:32;2.37;;;0.90;;
16705;SDS011;8469;60.136;15.180;2022-07-04T13:22:00;3.20;;;0.85;;
16705;SDS011;8469;60.136;15.180;2022-07-04T13:24:27;1.65;;;0.82;;
16705;SDS011;8469;60.136;15.180;2022-07-04T13:26:54;2.67;;;1.13;;
16705;SDS011;8469;60.136;15.180;2022-07-04T13:29:21;0.82;;;0.82;;
16705;SDS011;8469;60.136;15.180;2022-07-04T13:31:56;1.62;;;0.88;;
16705;SDS011;8469;60.136;15.180;2022-07-04T13:34:20;1.52;;;0.75;;
16705;SDS011;8469;60.136;15.180;2022-07-04T13:36:48;1.15;;;0.85;;
16705;SDS011;8469;60.136;15.180;2022-07-04T13:39:17;1.20;;;0.83;;
16705;SDS011;8469;60.136;15.180;2022-07-04T13:41:44;2.12;;;1.00;;
16705;SDS011;8469;60.136;15.180;2022-07-04T13:44:11;1.12;;;0.90;;
16705;SDS011;8469;60.136;15.180;2022-07-04T13:46:43;0.78;;;0.70;;
16705;SDS011;8469;60.136;15.180;2022-07-04T13:49:11;1.47;;;0.60;;
16705;SDS011;8469;60.136;15.180;2022-07-04T13:51:38;0.80;;;0.80;;
16705;SDS011;8469;60.136;15.180;2022-07-04T13:54:07;2.60;;;0.90;;
16705;SDS011;8469;60.136;15.180;2022-07-04T13:56:34;1.30;;;0.65;;
16705;SDS011;8469;60.136;15.180;2022-07-04T13:59:02;4.60;;;0.90;;
16705;SDS011;8469;60.136;15.180;2022-07-04T14:01:29;0.60;;;0.60;;
16705;SDS011;8469;60.136;15.180;2022-07-04T14:03:56;1.50;;;0.75;;
16705;SDS011;8469;60.136;15.180;2022-07-04T14:06:23;0.70;;;0.70;;
16705;SDS011;8469;60.136;15.180;2022-07-04T14:08:51;2.70;;;0.98;;
16705;SDS011;8469;60.136;15.180;2022-07-04T14:11:18;4.30;;;0.88;;
16705;SDS011;8469;60.136;15.180;2022-07-04T14:13:45;1.37;;;0.70;;
16705;SDS011;8469;60.136;15.180;2022-07-04T14:16:12;3.75;;;0.80;;
16705;SDS011;8469;60.136;15.180;2022-07-04T14:18:40;3.23;;;0.87;;
16705;SDS011;8469;60.136;15.180;2022-07-04T14:21:07;0.80;;;0.60;;
16705;SDS011;8469;60.136;15.180;2022-07-04T14:23:34;2.50;;;0.80;;
16705;SDS011;8469;60.136;15.180;2022-07-04T14:26:08;0.70;;;0.70;;
16705;SDS011;8469;60.136;15.180;2022-07-04T14:28:36;0.90;;;0.75;;
16705;SDS011;8469;60.136;15.180;2022-07-04T14:31:04;1.40;;;0.80;;
16705;SDS011;8469;60.136;15.180;2022-07-04T14:33:31;4.10;;;0.68;;
16705;SDS011;8469;60.136;15.180;2022-07-04T14:36:03;0.65;;;0.65;;
16705;SDS011;8469;60.136;15.180;2022-07-04T14:38:27;3.17;;;1.10;;
16705;SDS011;8469;60.136;15.180;2022-07-04T14:40:55;1.95;;;0.57;;
16705;SDS011;8469;60.136;15.180;2022-07-04T14:43:22;2.17;;;0.70;;
16705;SDS011;8469;60.136;15.180;2022-07-04T14:45:49;1.40;;;0.60;;
16705;SDS011;8469;60.136;15.180;2022-07-04T14:48:17;0.78;;;0.70;;
16705;SDS011;8469;60.136;15.180;2022-07-04T14:50:44;2.13;;;0.70;;
16705;SDS011;8469;60.136;15.180;2022-07-04T14:53:13;2.47;;;0.83;;
16705;SDS011;8469;60.136;15.180;2022-07-04T14:55:40;2.05;;;0.50;;
16705;SDS011;8469;60.136;15.180;2022-07-04T14:58:07;1.02;;;0.50;;
16705;SDS011;8469;60.136;15.180;2022-07-04T15:00:35;0.60;;;0.60;;
16705;SDS011;8469;60.136;15.180;2022-07-04T15:03:03;2.33;;;0.62;;
16705;SDS011;8469;60.136;15.180;2022-07-04T15:05:32;2.02;;;0.78;;